JBU2041 KBOS-KSRQ
Flight info
| Callsign | JBU2041 |
|---|---|
| Flight time | 3h 3m |
| Altitude | 32000 |
| Route | PATSS7 PATSS NELIE BIZEX Q75 BROSK/N0456F340 Q75 SLOJO Q103 PUPYY KYYUU LUBBR3 |
| Aircraft | A320/M-SDE3FGHIRWY/LB1 |
Departure
| Time | 2026-05-03 21:26 |
|---|---|
| Airport | Boston Logan International Airport (KBOS) |
Arrival
| Time | 2026-05-04 00:29 |
|---|---|
| Airport | Sarasota Bradenton International Airport (KSRQ) |
| Time | Latitude | Longitude | Altitude | Speed | Heading |
|---|---|---|---|---|---|
| 2026-05-03 20:59 | 42.36734 | -71.01485 | 26 ft | 0 kts | 335° |
| 2026-05-03 21:11 | 42.36723 | -71.01478 | 30 ft | 3 kts | 342° |
| 2026-05-03 21:11 | 42.36704 | -71.01473 | 29 ft | 3 kts | 7° |
| 2026-05-03 21:12 | 42.36686 | -71.01480 | 30 ft | 3 kts | 45° |
| 2026-05-03 21:12 | 42.36678 | -71.01495 | 27 ft | 1 kts | 79° |
| 2026-05-03 21:12 | 42.36680 | -71.01484 | 28 ft | 3 kts | 79° |
| 2026-05-03 21:12 | 42.36683 | -71.01457 | 27 ft | 3 kts | 79° |
| 2026-05-03 21:13 | 42.36687 | -71.01430 | 27 ft | 3 kts | 79° |
| 2026-05-03 21:13 | 42.36691 | -71.01404 | 26 ft | 3 kts | 79° |
| 2026-05-03 21:13 | 42.36693 | -71.01388 | 25 ft | 0 kts | 79° |
| 2026-05-03 21:13 | 42.36693 | -71.01387 | 25 ft | 0 kts | 79° |
| 2026-05-03 21:16 | 42.36693 | -71.01383 | 25 ft | 2 kts | 79° |
| 2026-05-03 21:17 | 42.36700 | -71.01337 | 27 ft | 8 kts | 80° |
| 2026-05-03 21:17 | 42.36705 | -71.01285 | 25 ft | 9 kts | 87° |
| 2026-05-03 21:17 | 42.36635 | -71.01272 | 29 ft | 11 kts | 195° |
| 2026-05-03 21:17 | 42.36559 | -71.01308 | 27 ft | 12 kts | 202° |
| 2026-05-03 21:18 | 42.36478 | -71.01361 | 25 ft | 14 kts | 205° |
| 2026-05-03 21:18 | 42.36394 | -71.01401 | 28 ft | 11 kts | 185° |
| 2026-05-03 21:18 | 42.36342 | -71.01328 | 27 ft | 12 kts | 121° |
| 2026-05-03 21:18 | 42.36295 | -71.01227 | 25 ft | 13 kts | 121° |
| 2026-05-03 21:19 | 42.36248 | -71.01111 | 25 ft | 15 kts | 114° |
| 2026-05-03 21:19 | 42.36205 | -71.00980 | 25 ft | 16 kts | 114° |
| 2026-05-03 21:19 | 42.36166 | -71.00861 | 29 ft | 14 kts | 117° |
| 2026-05-03 21:19 | 42.36149 | -71.00812 | 25 ft | 0 kts | 114° |
| 2026-05-03 21:20 | 42.36140 | -71.00784 | 26 ft | 7 kts | 114° |
| 2026-05-03 21:20 | 42.36118 | -71.00708 | 26 ft | 11 kts | 109° |
| 2026-05-03 21:20 | 42.36087 | -71.00588 | 28 ft | 15 kts | 108° |
| 2026-05-03 21:20 | 42.36052 | -71.00450 | 26 ft | 16 kts | 109° |
| 2026-05-03 21:21 | 42.36019 | -71.00322 | 25 ft | 13 kts | 109° |
| 2026-05-03 21:21 | 42.35988 | -71.00197 | 28 ft | 15 kts | 109° |
| 2026-05-03 21:21 | 42.35955 | -71.00062 | 25 ft | 16 kts | 104° |
| 2026-05-03 21:21 | 42.35961 | -70.99919 | 25 ft | 15 kts | 76° |
| 2026-05-03 21:22 | 42.35986 | -70.99781 | 25 ft | 13 kts | 76° |
| 2026-05-03 21:22 | 42.36008 | -70.99656 | 25 ft | 14 kts | 76° |
| 2026-05-03 21:22 | 42.36032 | -70.99521 | 25 ft | 15 kts | 76° |
| 2026-05-03 21:22 | 42.36057 | -70.99377 | 25 ft | 16 kts | 76° |
| 2026-05-03 21:23 | 42.36085 | -70.99223 | 25 ft | 17 kts | 76° |
| 2026-05-03 21:23 | 42.36113 | -70.99066 | 25 ft | 15 kts | 77° |
| 2026-05-03 21:23 | 42.36137 | -70.98928 | 26 ft | 9 kts | 77° |
| 2026-05-03 21:23 | 42.36128 | -70.98858 | 29 ft | 9 kts | 129° |
| 2026-05-03 21:24 | 42.36102 | -70.98844 | 27 ft | 0 kts | 167° |
| 2026-05-03 21:24 | 42.36099 | -70.98843 | 27 ft | 1 kts | 167° |
| 2026-05-03 21:24 | 42.36073 | -70.98835 | 25 ft | 6 kts | 167° |
| 2026-05-03 21:24 | 42.36022 | -70.98824 | 25 ft | 8 kts | 191° |
| 2026-05-03 21:25 | 42.36002 | -70.98895 | 27 ft | 9 kts | 257° |
| 2026-05-03 21:25 | 42.35961 | -70.99131 | 27 ft | 57 kts | 256° |
| 2026-05-03 21:25 | 42.35820 | -70.99926 | 26 ft | 116 kts | 257° |
| 2026-05-03 21:25 | 42.35580 | -71.01180 | 75 ft | 154 kts | 259° |
| 2026-05-03 21:26 | 42.35323 | -71.02601 | 643 ft | 156 kts | 257° |
| 2026-05-03 21:26 | 42.34719 | -71.03844 | 1325 ft | 165 kts | 229° |
| 2026-05-03 21:26 | 42.33862 | -71.04880 | 1933 ft | 167 kts | 231° |
| 2026-05-03 21:26 | 42.32974 | -71.05997 | 2196 ft | 182 kts | 231° |
| 2026-05-03 21:27 | 42.32010 | -71.07222 | 2473 ft | 199 kts | 230° |
| 2026-05-03 21:27 | 42.30944 | -71.08577 | 2702 ft | 221 kts | 230° |
| 2026-05-03 21:27 | 42.29761 | -71.10079 | 2956 ft | 245 kts | 229° |
| 2026-05-03 21:27 | 42.28486 | -71.11692 | 3588 ft | 255 kts | 231° |
| 2026-05-03 21:28 | 42.27387 | -71.13552 | 4418 ft | 252 kts | 244° |
| 2026-05-03 21:28 | 42.26630 | -71.15674 | 5226 ft | 252 kts | 252° |
| 2026-05-03 21:28 | 42.25945 | -71.17870 | 6045 ft | 255 kts | 252° |
| 2026-05-03 21:28 | 42.25247 | -71.20090 | 6819 ft | 258 kts | 251° |
| 2026-05-03 21:29 | 42.24538 | -71.22335 | 7570 ft | 262 kts | 251° |
| 2026-05-03 21:29 | 42.23818 | -71.24607 | 8320 ft | 265 kts | 251° |
| 2026-05-03 21:29 | 42.23086 | -71.26907 | 9058 ft | 268 kts | 251° |
| 2026-05-03 21:29 | 42.22344 | -71.29234 | 9788 ft | 272 kts | 251° |
| 2026-05-03 21:30 | 42.21588 | -71.31614 | 10242 ft | 284 kts | 251° |
| 2026-05-03 21:30 | 42.20785 | -71.34160 | 10400 ft | 306 kts | 251° |
| 2026-05-03 21:30 | 42.20220 | -71.35948 | 10519 ft | 318 kts | 251° |
| 2026-05-03 21:30 | 42.19332 | -71.38726 | 11013 ft | 325 kts | 251° |
| 2026-05-03 21:31 | 42.18425 | -71.41542 | 11638 ft | 329 kts | 251° |
| 2026-05-03 21:31 | 42.17510 | -71.44382 | 12272 ft | 332 kts | 251° |
| 2026-05-03 21:31 | 42.16587 | -71.47246 | 12906 ft | 334 kts | 251° |
| 2026-05-03 21:31 | 42.15656 | -71.50137 | 13546 ft | 337 kts | 251° |
| 2026-05-03 21:32 | 42.14719 | -71.53054 | 13929 ft | 340 kts | 251° |
| 2026-05-03 21:32 | 42.13777 | -71.55976 | 14019 ft | 340 kts | 251° |
| 2026-05-03 21:32 | 42.12832 | -71.58910 | 14284 ft | 343 kts | 251° |
| 2026-05-03 21:32 | 42.11881 | -71.61865 | 14874 ft | 344 kts | 251° |
| 2026-05-03 21:33 | 42.10922 | -71.64828 | 15430 ft | 347 kts | 251° |
| 2026-05-03 21:33 | 42.09957 | -71.67814 | 15972 ft | 349 kts | 251° |
| 2026-05-03 21:33 | 42.09038 | -71.70842 | 16489 ft | 349 kts | 256° |
| 2026-05-03 21:33 | 42.08468 | -71.74008 | 17044 ft | 348 kts | 263° |
| 2026-05-03 21:34 | 42.08007 | -71.77220 | 17591 ft | 351 kts | 263° |
| 2026-05-03 21:34 | 42.07534 | -71.80453 | 18138 ft | 354 kts | 263° |
| 2026-05-03 21:34 | 42.07051 | -71.83717 | 18645 ft | 356 kts | 263° |
| 2026-05-03 21:34 | 42.06572 | -71.86954 | 19149 ft | 359 kts | 263° |
| 2026-05-03 21:35 | 42.06082 | -71.90260 | 19656 ft | 361 kts | 263° |
| 2026-05-03 21:35 | 42.05587 | -71.93582 | 20188 ft | 363 kts | 263° |
| 2026-05-03 21:35 | 42.05086 | -71.96929 | 20695 ft | 366 kts | 262° |
| 2026-05-03 21:35 | 42.04580 | -72.00294 | 21194 ft | 368 kts | 262° |
| 2026-05-03 21:36 | 42.04071 | -72.03679 | 21678 ft | 370 kts | 263° |
| 2026-05-03 21:36 | 42.03561 | -72.07083 | 22145 ft | 372 kts | 263° |
| 2026-05-03 21:36 | 42.03047 | -72.10506 | 22603 ft | 375 kts | 263° |
| 2026-05-03 21:36 | 42.02529 | -72.13948 | 23074 ft | 377 kts | 263° |
| 2026-05-03 21:37 | 42.02008 | -72.17415 | 23498 ft | 379 kts | 263° |
| 2026-05-03 21:37 | 42.01484 | -72.20902 | 23860 ft | 381 kts | 262° |
| 2026-05-03 21:37 | 42.00954 | -72.24406 | 24221 ft | 383 kts | 262° |
| 2026-05-03 21:37 | 42.00417 | -72.27925 | 24573 ft | 385 kts | 262° |
| 2026-05-03 21:38 | 41.99878 | -72.31456 | 24901 ft | 387 kts | 262° |
| 2026-05-03 21:38 | 41.99337 | -72.35012 | 25234 ft | 389 kts | 262° |
| 2026-05-03 21:38 | 41.98789 | -72.38579 | 25584 ft | 391 kts | 262° |
| 2026-05-03 21:38 | 41.98237 | -72.42162 | 25916 ft | 392 kts | 262° |
| 2026-05-03 21:39 | 41.97683 | -72.45756 | 26240 ft | 394 kts | 262° |
| 2026-05-03 21:39 | 41.97124 | -72.49380 | 26580 ft | 396 kts | 261° |
| 2026-05-03 21:39 | 41.96564 | -72.53012 | 26907 ft | 398 kts | 261° |
| 2026-05-03 21:39 | 41.95999 | -72.56655 | 27238 ft | 399 kts | 261° |
| 2026-05-03 21:40 | 41.95437 | -72.60269 | 27561 ft | 401 kts | 261° |
| 2026-05-03 21:40 | 41.94835 | -72.63942 | 27882 ft | 404 kts | 257° |
| 2026-05-03 21:40 | 41.93860 | -72.67506 | 28198 ft | 410 kts | 248° |
| 2026-05-03 21:40 | 41.92416 | -72.70835 | 28508 ft | 417 kts | 238° |
| 2026-05-03 21:41 | 41.90521 | -72.73820 | 28806 ft | 424 kts | 230° |
| 2026-05-03 21:41 | 41.88452 | -72.76642 | 29109 ft | 425 kts | 230° |
| 2026-05-03 21:41 | 41.86376 | -72.79480 | 29404 ft | 427 kts | 230° |
| 2026-05-03 21:41 | 41.84293 | -72.82328 | 29694 ft | 428 kts | 230° |
| 2026-05-03 21:42 | 41.82211 | -72.85181 | 29980 ft | 430 kts | 230° |
| 2026-05-03 21:42 | 41.80116 | -72.88059 | 30209 ft | 431 kts | 230° |
| 2026-05-03 21:42 | 41.78020 | -72.90939 | 30429 ft | 433 kts | 230° |
| 2026-05-03 21:42 | 41.75909 | -72.93840 | 30641 ft | 434 kts | 230° |
| 2026-05-03 21:43 | 41.73798 | -72.96736 | 30880 ft | 435 kts | 230° |
| 2026-05-03 21:43 | 41.71685 | -72.99624 | 31179 ft | 434 kts | 230° |
| 2026-05-03 21:43 | 41.69568 | -73.02500 | 31467 ft | 433 kts | 230° |
| 2026-05-03 21:43 | 41.67449 | -73.05375 | 31754 ft | 433 kts | 230° |
| 2026-05-03 21:44 | 41.65333 | -73.08247 | 31889 ft | 431 kts | 230° |
| 2026-05-03 21:44 | 41.63243 | -73.11089 | 31915 ft | 426 kts | 230° |
| 2026-05-03 21:44 | 41.59140 | -73.16677 | 31908 ft | 423 kts | 230° |
| 2026-05-03 21:45 | 41.55007 | -73.22274 | 31906 ft | 423 kts | 230° |
| 2026-05-03 21:45 | 41.50869 | -73.27866 | 31908 ft | 423 kts | 230° |
| 2026-05-03 21:46 | 41.46739 | -73.33443 | 31912 ft | 423 kts | 230° |
| 2026-05-03 21:46 | 41.42601 | -73.39016 | 31895 ft | 423 kts | 230° |
| 2026-05-03 21:47 | 41.38467 | -73.44587 | 31898 ft | 423 kts | 230° |
| 2026-05-03 21:47 | 41.34330 | -73.50147 | 31896 ft | 423 kts | 230° |
| 2026-05-03 21:48 | 41.30185 | -73.55696 | 31894 ft | 423 kts | 230° |
| 2026-05-03 21:48 | 41.26312 | -73.61510 | 31901 ft | 419 kts | 235° |
| 2026-05-03 21:49 | 41.22655 | -73.67539 | 31903 ft | 419 kts | 235° |
| 2026-05-03 21:49 | 41.18997 | -73.73558 | 31903 ft | 419 kts | 235° |
| 2026-05-03 21:50 | 41.15332 | -73.79558 | 31904 ft | 418 kts | 235° |
| 2026-05-03 21:50 | 41.11729 | -73.85557 | 31915 ft | 418 kts | 236° |
| 2026-05-03 21:51 | 41.08137 | -73.91624 | 31925 ft | 418 kts | 236° |
| 2026-05-03 21:51 | 41.04553 | -73.97676 | 31924 ft | 417 kts | 236° |
| 2026-05-03 21:52 | 41.00949 | -74.03715 | 31928 ft | 417 kts | 236° |
| 2026-05-03 21:52 | 40.97345 | -74.09728 | 31923 ft | 417 kts | 236° |
| 2026-05-03 21:53 | 40.93738 | -74.15724 | 31927 ft | 416 kts | 236° |
| 2026-05-03 21:53 | 40.90133 | -74.21714 | 31943 ft | 416 kts | 236° |
| 2026-05-03 21:54 | 40.86536 | -74.27693 | 31944 ft | 415 kts | 236° |
| 2026-05-03 21:54 | 40.82942 | -74.33650 | 31941 ft | 414 kts | 236° |
| 2026-05-03 21:55 | 40.79374 | -74.39547 | 31951 ft | 413 kts | 236° |
| 2026-05-03 21:55 | 40.75783 | -74.45471 | 31948 ft | 413 kts | 236° |
| 2026-05-03 21:56 | 40.72195 | -74.51376 | 31945 ft | 412 kts | 236° |
| 2026-05-03 21:56 | 40.68613 | -74.57269 | 31923 ft | 412 kts | 236° |
| 2026-05-03 21:57 | 40.65030 | -74.63154 | 31922 ft | 411 kts | 236° |
| 2026-05-03 21:57 | 40.61451 | -74.69026 | 31923 ft | 411 kts | 236° |
| 2026-05-03 21:58 | 40.57857 | -74.74874 | 31919 ft | 411 kts | 235° |
| 2026-05-03 21:58 | 40.54032 | -74.80488 | 31927 ft | 413 kts | 232° |
| 2026-05-03 21:59 | 40.50061 | -74.85948 | 31926 ft | 413 kts | 232° |
| 2026-05-03 21:59 | 40.46107 | -74.91416 | 31956 ft | 413 kts | 232° |
| 2026-05-03 22:00 | 40.42208 | -74.96878 | 31958 ft | 412 kts | 233° |
| 2026-05-03 22:00 | 40.38306 | -75.02389 | 31948 ft | 412 kts | 233° |
| 2026-05-03 22:01 | 40.34409 | -75.07877 | 31963 ft | 411 kts | 233° |
| 2026-05-03 22:01 | 40.30506 | -75.13346 | 31956 ft | 411 kts | 233° |
| 2026-05-03 22:02 | 40.26601 | -75.18814 | 31952 ft | 411 kts | 232° |
| 2026-05-03 22:02 | 40.22694 | -75.24272 | 31977 ft | 410 kts | 232° |
| 2026-05-03 22:03 | 40.18793 | -75.29717 | 31982 ft | 410 kts | 232° |
| 2026-05-03 22:03 | 40.14893 | -75.35144 | 31982 ft | 409 kts | 232° |
| 2026-05-03 22:04 | 40.11003 | -75.40549 | 31987 ft | 407 kts | 232° |
| 2026-05-03 22:04 | 40.07125 | -75.45929 | 32008 ft | 406 kts | 232° |
| 2026-05-03 22:05 | 40.03251 | -75.51297 | 32016 ft | 406 kts | 232° |
| 2026-05-03 22:05 | 39.99383 | -75.56641 | 32010 ft | 405 kts | 232° |
| 2026-05-03 22:06 | 39.95520 | -75.61967 | 32014 ft | 404 kts | 232° |
| 2026-05-03 22:06 | 39.91692 | -75.67243 | 32000 ft | 402 kts | 233° |
| 2026-05-03 22:07 | 39.88079 | -75.72757 | 31999 ft | 398 kts | 237° |
| 2026-05-03 22:07 | 39.84651 | -75.78403 | 31993 ft | 397 kts | 237° |
| 2026-05-03 22:08 | 39.81220 | -75.84019 | 32003 ft | 396 kts | 237° |
| 2026-05-03 22:08 | 39.77745 | -75.89573 | 32003 ft | 395 kts | 236° |
| 2026-05-03 22:09 | 39.74265 | -75.95092 | 32016 ft | 394 kts | 236° |
| 2026-05-03 22:10 | 39.69062 | -76.03342 | 32020 ft | 393 kts | 236° |
| 2026-05-03 22:10 | 39.65600 | -76.08820 | 32036 ft | 392 kts | 237° |
| 2026-05-03 22:11 | 39.62141 | -76.14276 | 32027 ft | 391 kts | 236° |
| 2026-05-03 22:11 | 39.58685 | -76.19715 | 32031 ft | 390 kts | 236° |
| 2026-05-03 22:12 | 39.55192 | -76.25107 | 32034 ft | 390 kts | 236° |
| 2026-05-03 22:12 | 39.51688 | -76.30461 | 32036 ft | 389 kts | 236° |
| 2026-05-03 22:13 | 39.48218 | -76.35769 | 32038 ft | 388 kts | 236° |
| 2026-05-03 22:13 | 39.44660 | -76.41044 | 32041 ft | 390 kts | 233° |
| 2026-05-03 22:14 | 39.40845 | -76.46040 | 32040 ft | 391 kts | 231° |
| 2026-05-03 22:14 | 39.36963 | -76.50964 | 32045 ft | 390 kts | 232° |
| 2026-05-03 22:15 | 39.33124 | -76.55908 | 32041 ft | 389 kts | 232° |
| 2026-05-03 22:15 | 39.29314 | -76.60875 | 32038 ft | 388 kts | 232° |
| 2026-05-03 22:16 | 39.25519 | -76.65826 | 32032 ft | 387 kts | 232° |
| 2026-05-03 22:16 | 39.21735 | -76.70758 | 32036 ft | 386 kts | 232° |
| 2026-05-03 22:17 | 39.17952 | -76.75678 | 32031 ft | 386 kts | 232° |
| 2026-05-03 22:17 | 39.14168 | -76.80572 | 32068 ft | 385 kts | 232° |
| 2026-05-03 22:18 | 39.11025 | -76.84621 | 32066 ft | 384 kts | 232° |
| 2026-05-03 22:18 | 39.07259 | -76.89485 | 32053 ft | 383 kts | 232° |
| 2026-05-03 22:19 | 39.02894 | -76.95121 | 32053 ft | 382 kts | 232° |
| 2026-05-03 22:19 | 38.99147 | -76.99935 | 32055 ft | 380 kts | 232° |
| 2026-05-03 22:20 | 38.96020 | -77.03964 | 32054 ft | 379 kts | 232° |
| 2026-05-03 22:20 | 38.92300 | -77.08752 | 32046 ft | 378 kts | 232° |
| 2026-05-03 22:21 | 38.88584 | -77.13522 | 32042 ft | 377 kts | 231° |
| 2026-05-03 22:21 | 38.84881 | -77.18272 | 32046 ft | 376 kts | 231° |
| 2026-05-03 22:22 | 38.81207 | -77.22971 | 32022 ft | 375 kts | 231° |
| 2026-05-03 22:22 | 38.77517 | -77.27685 | 32022 ft | 374 kts | 231° |
| 2026-05-03 22:23 | 38.73826 | -77.32382 | 32024 ft | 373 kts | 231° |
| 2026-05-03 22:23 | 38.70062 | -77.36972 | 32058 ft | 374 kts | 229° |
| 2026-05-03 22:24 | 38.66177 | -77.41419 | 32054 ft | 374 kts | 228° |
| 2026-05-03 22:24 | 38.62286 | -77.45841 | 32049 ft | 374 kts | 229° |
| 2026-05-03 22:25 | 38.58420 | -77.50270 | 32050 ft | 373 kts | 229° |
| 2026-05-03 22:25 | 38.54570 | -77.54702 | 32040 ft | 372 kts | 229° |
| 2026-05-03 22:26 | 38.50721 | -77.59133 | 32041 ft | 372 kts | 229° |
| 2026-05-03 22:26 | 38.46880 | -77.63554 | 32041 ft | 372 kts | 229° |
| 2026-05-03 22:27 | 38.43033 | -77.67958 | 32042 ft | 371 kts | 228° |
| 2026-05-03 22:27 | 38.39186 | -77.72350 | 32049 ft | 371 kts | 228° |
| 2026-05-03 22:28 | 38.35345 | -77.76737 | 32048 ft | 370 kts | 228° |
| 2026-05-03 22:28 | 38.31515 | -77.81117 | 32045 ft | 370 kts | 228° |
| 2026-05-03 22:29 | 38.27686 | -77.85488 | 32039 ft | 369 kts | 228° |
| 2026-05-03 22:29 | 38.23884 | -77.89816 | 32037 ft | 369 kts | 228° |
| 2026-05-03 22:30 | 38.20048 | -77.94168 | 32032 ft | 369 kts | 228° |
| 2026-05-03 22:30 | 38.16226 | -77.98505 | 32033 ft | 368 kts | 228° |
| 2026-05-03 22:31 | 38.12403 | -78.02827 | 32025 ft | 368 kts | 228° |
| 2026-05-03 22:31 | 38.08586 | -78.07140 | 32024 ft | 367 kts | 228° |
| 2026-05-03 22:32 | 38.04775 | -78.11445 | 32022 ft | 367 kts | 227° |
| 2026-05-03 22:32 | 38.00949 | -78.15727 | 32033 ft | 367 kts | 226° |
| 2026-05-03 22:33 | 37.96913 | -78.19737 | 32056 ft | 369 kts | 223° |
| 2026-05-03 22:33 | 37.92771 | -78.23584 | 32049 ft | 369 kts | 223° |
| 2026-05-03 22:34 | 37.88643 | -78.27442 | 32050 ft | 368 kts | 223° |
| 2026-05-03 22:34 | 37.84555 | -78.31331 | 32045 ft | 367 kts | 224° |
| 2026-05-03 22:35 | 37.80507 | -78.35199 | 32056 ft | 367 kts | 224° |
| 2026-05-03 22:35 | 37.76429 | -78.39078 | 32053 ft | 366 kts | 224° |
| 2026-05-03 22:36 | 37.72360 | -78.42937 | 32053 ft | 365 kts | 223° |
| 2026-05-03 22:36 | 37.68300 | -78.46785 | 32054 ft | 365 kts | 223° |
| 2026-05-03 22:37 | 37.64244 | -78.50621 | 32057 ft | 364 kts | 223° |
| 2026-05-03 22:37 | 37.60191 | -78.54444 | 32055 ft | 363 kts | 223° |
| 2026-05-03 22:38 | 37.56149 | -78.58259 | 32053 ft | 363 kts | 223° |
| 2026-05-03 22:38 | 37.52110 | -78.62068 | 32055 ft | 362 kts | 223° |
| 2026-05-03 22:39 | 37.48078 | -78.65861 | 32056 ft | 361 kts | 223° |
| 2026-05-03 22:39 | 37.44050 | -78.69644 | 32056 ft | 361 kts | 223° |
| 2026-05-03 22:40 | 37.40028 | -78.73423 | 32056 ft | 361 kts | 223° |
| 2026-05-03 22:40 | 37.36007 | -78.77195 | 32058 ft | 360 kts | 223° |
| 2026-05-03 22:41 | 37.31987 | -78.80955 | 32058 ft | 360 kts | 223° |
| 2026-05-03 22:41 | 37.27997 | -78.84683 | 32058 ft | 360 kts | 223° |
| 2026-05-03 22:42 | 37.23982 | -78.88434 | 32061 ft | 359 kts | 223° |
| 2026-05-03 22:42 | 37.19971 | -78.92168 | 32058 ft | 359 kts | 223° |
| 2026-05-03 22:43 | 37.15957 | -78.95897 | 32057 ft | 359 kts | 223° |
| 2026-05-03 22:43 | 37.11953 | -78.99613 | 32055 ft | 358 kts | 223° |
| 2026-05-03 22:44 | 37.07950 | -79.03333 | 32056 ft | 358 kts | 223° |
| 2026-05-03 22:44 | 37.03953 | -79.07046 | 32058 ft | 357 kts | 223° |
| 2026-05-03 22:45 | 36.99959 | -79.10747 | 32062 ft | 357 kts | 223° |
| 2026-05-03 22:45 | 36.95998 | -79.14419 | 32065 ft | 357 kts | 223° |
| 2026-05-03 22:46 | 36.92007 | -79.18103 | 32062 ft | 356 kts | 222° |
| 2026-05-03 22:46 | 36.88018 | -79.21776 | 32065 ft | 356 kts | 222° |
| 2026-05-03 22:47 | 36.84034 | -79.25444 | 32068 ft | 355 kts | 222° |
| 2026-05-03 22:47 | 36.80053 | -79.29106 | 32066 ft | 355 kts | 222° |
| 2026-05-03 22:48 | 36.76081 | -79.32761 | 32065 ft | 355 kts | 222° |
| 2026-05-03 22:48 | 36.72103 | -79.36405 | 32067 ft | 354 kts | 222° |
| 2026-05-03 22:49 | 36.68131 | -79.40041 | 32070 ft | 354 kts | 222° |
| 2026-05-03 22:49 | 36.64169 | -79.43671 | 32069 ft | 354 kts | 222° |
| 2026-05-03 22:50 | 36.60203 | -79.47299 | 32068 ft | 353 kts | 222° |
| 2026-05-03 22:50 | 36.56240 | -79.50918 | 32068 ft | 353 kts | 222° |
| 2026-05-03 22:51 | 36.52276 | -79.54522 | 32070 ft | 353 kts | 222° |
| 2026-05-03 22:51 | 36.48317 | -79.58117 | 32071 ft | 352 kts | 222° |
| 2026-05-03 22:52 | 36.44365 | -79.61713 | 32070 ft | 352 kts | 222° |
| 2026-05-03 22:52 | 36.40422 | -79.65297 | 32070 ft | 351 kts | 222° |
| 2026-05-03 22:53 | 36.36478 | -79.68873 | 32071 ft | 351 kts | 222° |
| 2026-05-03 22:53 | 36.32537 | -79.72446 | 32069 ft | 350 kts | 222° |
| 2026-05-03 22:54 | 36.28625 | -79.75984 | 32064 ft | 350 kts | 222° |
| 2026-05-03 22:54 | 36.24689 | -79.79534 | 32073 ft | 350 kts | 222° |
| 2026-05-03 22:55 | 36.20758 | -79.83081 | 32070 ft | 349 kts | 222° |
| 2026-05-03 22:55 | 36.16827 | -79.86624 | 32069 ft | 349 kts | 222° |
| 2026-05-03 22:56 | 36.12898 | -79.90163 | 32068 ft | 349 kts | 222° |
| 2026-05-03 22:56 | 36.08971 | -79.93690 | 32065 ft | 349 kts | 222° |
| 2026-05-03 22:57 | 36.05048 | -79.97161 | 32072 ft | 351 kts | 218° |
| 2026-05-03 22:57 | 36.00506 | -79.99632 | 32067 ft | 359 kts | 210° |
| 2026-05-03 22:58 | 35.95867 | -80.01925 | 32067 ft | 359 kts | 211° |
| 2026-05-03 22:58 | 35.91235 | -80.04227 | 32073 ft | 359 kts | 211° |
| 2026-05-03 22:59 | 35.86600 | -80.06525 | 32071 ft | 358 kts | 211° |
| 2026-05-03 22:59 | 35.81966 | -80.08808 | 32071 ft | 358 kts | 211° |
| 2026-05-03 23:00 | 35.77334 | -80.11090 | 32073 ft | 358 kts | 211° |
| 2026-05-03 23:00 | 35.72707 | -80.13368 | 32073 ft | 358 kts | 211° |
| 2026-05-03 23:01 | 35.68082 | -80.15635 | 32067 ft | 358 kts | 211° |
| 2026-05-03 23:01 | 35.63460 | -80.17900 | 32075 ft | 357 kts | 211° |
| 2026-05-03 23:02 | 35.58869 | -80.20144 | 32110 ft | 357 kts | 211° |
| 2026-05-03 23:02 | 35.54244 | -80.22407 | 32108 ft | 358 kts | 211° |
| 2026-05-03 23:03 | 35.49620 | -80.24670 | 32102 ft | 358 kts | 211° |
| 2026-05-03 23:03 | 35.44986 | -80.26936 | 32104 ft | 359 kts | 211° |
| 2026-05-03 23:04 | 35.40345 | -80.29200 | 32096 ft | 359 kts | 211° |
| 2026-05-03 23:04 | 35.35689 | -80.31464 | 32091 ft | 360 kts | 211° |
| 2026-05-03 23:05 | 35.31030 | -80.33732 | 32082 ft | 361 kts | 211° |
| 2026-05-03 23:05 | 35.26365 | -80.36000 | 32087 ft | 361 kts | 211° |
| 2026-05-03 23:06 | 35.22477 | -80.37881 | 32089 ft | 362 kts | 211° |
| 2026-05-03 23:06 | 35.17033 | -80.40516 | 32069 ft | 362 kts | 211° |
| 2026-05-03 23:07 | 35.13100 | -80.42421 | 32064 ft | 363 kts | 211° |
| 2026-05-03 23:07 | 35.08398 | -80.44693 | 32062 ft | 364 kts | 211° |
| 2026-05-03 23:08 | 35.03713 | -80.46953 | 32056 ft | 364 kts | 211° |
| 2026-05-03 23:08 | 34.98992 | -80.49225 | 32052 ft | 365 kts | 211° |
| 2026-05-03 23:09 | 34.94263 | -80.51504 | 32054 ft | 366 kts | 211° |
| 2026-05-03 23:09 | 34.89520 | -80.53790 | 32053 ft | 367 kts | 210° |
| 2026-05-03 23:10 | 34.84767 | -80.56075 | 32060 ft | 368 kts | 210° |
| 2026-05-03 23:10 | 34.80002 | -80.58361 | 32064 ft | 369 kts | 210° |
| 2026-05-03 23:11 | 34.75222 | -80.60642 | 32077 ft | 369 kts | 210° |
| 2026-05-03 23:11 | 34.70435 | -80.62928 | 32069 ft | 370 kts | 210° |
| 2026-05-03 23:12 | 34.65641 | -80.65221 | 32074 ft | 371 kts | 210° |
| 2026-05-03 23:12 | 34.60741 | -80.67315 | 32072 ft | 376 kts | 207° |
| 2026-05-03 23:13 | 34.55716 | -80.69128 | 32070 ft | 378 kts | 206° |
| 2026-05-03 23:13 | 34.50670 | -80.70918 | 32072 ft | 378 kts | 206° |
| 2026-05-03 23:14 | 34.45638 | -80.72765 | 32079 ft | 378 kts | 206° |
| 2026-05-03 23:14 | 34.40609 | -80.74641 | 32083 ft | 378 kts | 206° |
| 2026-05-03 23:15 | 34.35568 | -80.76514 | 32084 ft | 379 kts | 206° |
| 2026-05-03 23:15 | 34.30521 | -80.78375 | 32088 ft | 379 kts | 206° |
| 2026-05-03 23:16 | 34.25478 | -80.80241 | 32087 ft | 379 kts | 206° |
| 2026-05-03 23:16 | 34.20462 | -80.82098 | 32076 ft | 380 kts | 206° |
| 2026-05-03 23:17 | 34.15403 | -80.83962 | 32081 ft | 380 kts | 206° |
| 2026-05-03 23:17 | 34.10339 | -80.85823 | 32079 ft | 381 kts | 206° |
| 2026-05-03 23:18 | 34.05272 | -80.87689 | 32077 ft | 381 kts | 206° |
| 2026-05-03 23:18 | 34.00200 | -80.89551 | 32075 ft | 381 kts | 206° |
| 2026-05-03 23:19 | 33.95130 | -80.91412 | 32075 ft | 381 kts | 206° |
| 2026-05-03 23:19 | 33.90054 | -80.93277 | 32073 ft | 381 kts | 206° |
| 2026-05-03 23:20 | 33.84981 | -80.95136 | 32074 ft | 381 kts | 206° |
| 2026-05-03 23:20 | 33.79900 | -80.96990 | 32078 ft | 382 kts | 206° |
| 2026-05-03 23:21 | 33.74848 | -80.98833 | 32075 ft | 382 kts | 206° |
| 2026-05-03 23:21 | 33.69724 | -81.00702 | 32078 ft | 382 kts | 206° |
| 2026-05-03 23:22 | 33.62080 | -81.03484 | 32079 ft | 383 kts | 206° |
| 2026-05-03 23:22 | 33.57002 | -81.05327 | 32080 ft | 383 kts | 206° |
| 2026-05-03 23:23 | 33.51894 | -81.07178 | 32080 ft | 383 kts | 206° |
| 2026-05-03 23:23 | 33.46776 | -81.09036 | 32084 ft | 383 kts | 206° |
| 2026-05-03 23:24 | 33.41672 | -81.10893 | 32082 ft | 384 kts | 206° |
| 2026-05-03 23:24 | 33.36596 | -81.12729 | 32135 ft | 384 kts | 205° |
| 2026-05-03 23:25 | 33.31388 | -81.14618 | 32108 ft | 397 kts | 204° |
| 2026-05-03 23:25 | 33.26082 | -81.16536 | 32107 ft | 399 kts | 204° |
| 2026-05-03 23:26 | 33.20761 | -81.18445 | 32108 ft | 399 kts | 204° |
| 2026-05-03 23:26 | 33.15448 | -81.20353 | 32101 ft | 398 kts | 204° |
| 2026-05-03 23:27 | 33.10138 | -81.22263 | 32096 ft | 398 kts | 204° |
| 2026-05-03 23:27 | 33.04837 | -81.24161 | 32093 ft | 398 kts | 204° |
| 2026-05-03 23:28 | 32.99537 | -81.26058 | 32089 ft | 397 kts | 204° |
| 2026-05-03 23:28 | 32.94242 | -81.27956 | 32088 ft | 397 kts | 204° |
| 2026-05-03 23:29 | 32.88949 | -81.29853 | 32085 ft | 397 kts | 204° |
| 2026-05-03 23:29 | 32.83660 | -81.31742 | 32087 ft | 397 kts | 204° |
| 2026-05-03 23:30 | 32.78370 | -81.33628 | 32088 ft | 397 kts | 204° |
| 2026-05-03 23:30 | 32.73119 | -81.35505 | 32096 ft | 396 kts | 204° |
| 2026-05-03 23:31 | 32.67832 | -81.37389 | 32097 ft | 396 kts | 204° |
| 2026-05-03 23:31 | 32.62543 | -81.39270 | 32097 ft | 397 kts | 204° |
| 2026-05-03 23:32 | 32.57251 | -81.41144 | 32098 ft | 397 kts | 204° |
| 2026-05-03 23:32 | 32.51967 | -81.43017 | 32102 ft | 396 kts | 204° |
| 2026-05-03 23:33 | 32.46681 | -81.44890 | 32096 ft | 397 kts | 203° |
| 2026-05-03 23:33 | 32.41389 | -81.46762 | 32090 ft | 397 kts | 203° |
| 2026-05-03 23:34 | 32.36095 | -81.48633 | 32092 ft | 397 kts | 203° |
| 2026-05-03 23:34 | 32.30810 | -81.50497 | 32091 ft | 396 kts | 203° |
| 2026-05-03 23:35 | 32.25559 | -81.52348 | 32096 ft | 396 kts | 203° |
| 2026-05-03 23:35 | 32.20273 | -81.54212 | 32104 ft | 396 kts | 203° |
| 2026-05-03 23:36 | 32.14987 | -81.56063 | 32105 ft | 396 kts | 203° |
| 2026-05-03 23:36 | 32.09699 | -81.57913 | 32102 ft | 396 kts | 203° |
| 2026-05-03 23:37 | 32.04415 | -81.59763 | 32102 ft | 396 kts | 203° |
| 2026-05-03 23:37 | 31.99132 | -81.61621 | 32101 ft | 396 kts | 203° |
| 2026-05-03 23:38 | 31.93849 | -81.63473 | 32100 ft | 396 kts | 203° |
| 2026-05-03 23:38 | 31.88564 | -81.65317 | 32098 ft | 396 kts | 203° |
| 2026-05-03 23:39 | 31.83277 | -81.67156 | 32098 ft | 396 kts | 203° |
| 2026-05-03 23:39 | 31.77991 | -81.68995 | 32098 ft | 396 kts | 203° |
| 2026-05-03 23:40 | 31.72699 | -81.70831 | 32100 ft | 396 kts | 203° |
| 2026-05-03 23:40 | 31.67411 | -81.72677 | 32122 ft | 397 kts | 204° |
| 2026-05-03 23:41 | 31.62115 | -81.74520 | 32129 ft | 397 kts | 203° |
| 2026-05-03 23:41 | 31.56817 | -81.76359 | 32138 ft | 397 kts | 203° |
| 2026-05-03 23:42 | 31.51554 | -81.78185 | 32141 ft | 397 kts | 203° |
| 2026-05-03 23:42 | 31.46259 | -81.80026 | 32139 ft | 397 kts | 203° |
| 2026-05-03 23:43 | 31.40969 | -81.81882 | 32134 ft | 395 kts | 207° |
| 2026-05-03 23:43 | 31.35935 | -81.84340 | 32133 ft | 392 kts | 209° |
| 2026-05-03 23:44 | 31.30921 | -81.86830 | 32127 ft | 392 kts | 209° |
| 2026-05-03 23:44 | 31.25904 | -81.89319 | 32124 ft | 391 kts | 209° |
| 2026-05-03 23:45 | 31.20888 | -81.91808 | 32116 ft | 391 kts | 209° |
| 2026-05-03 23:45 | 31.15869 | -81.94290 | 32113 ft | 392 kts | 209° |
| 2026-05-03 23:46 | 31.10848 | -81.96765 | 32115 ft | 392 kts | 209° |
| 2026-05-03 23:46 | 31.05829 | -81.99238 | 32121 ft | 392 kts | 209° |
| 2026-05-03 23:47 | 31.00804 | -82.01707 | 32132 ft | 392 kts | 209° |
| 2026-05-03 23:47 | 30.95784 | -82.04170 | 32142 ft | 391 kts | 209° |
| 2026-05-03 23:48 | 30.90802 | -82.06623 | 32162 ft | 391 kts | 210° |
| 2026-05-03 23:48 | 30.85756 | -82.09106 | 32185 ft | 391 kts | 209° |
| 2026-05-03 23:49 | 30.80767 | -82.11548 | 32203 ft | 391 kts | 209° |
| 2026-05-03 23:49 | 30.75745 | -82.14002 | 32218 ft | 391 kts | 209° |
| 2026-05-03 23:50 | 30.71543 | -82.16058 | 32218 ft | 391 kts | 210° |
| 2026-05-03 23:50 | 30.65713 | -82.18903 | 32220 ft | 391 kts | 208° |
| 2026-05-03 23:51 | 30.60299 | -82.20286 | 32223 ft | 407 kts | 194° |
| 2026-05-03 23:51 | 30.54660 | -82.20908 | 32228 ft | 407 kts | 194° |
| 2026-05-03 23:52 | 30.49011 | -82.21548 | 32225 ft | 407 kts | 194° |
| 2026-05-03 23:52 | 30.43368 | -82.22195 | 32215 ft | 407 kts | 194° |
| 2026-05-03 23:53 | 30.37725 | -82.22834 | 32203 ft | 407 kts | 194° |
| 2026-05-03 23:53 | 30.33037 | -82.23360 | 32196 ft | 407 kts | 194° |
| 2026-05-03 23:54 | 30.27398 | -82.23994 | 32181 ft | 407 kts | 194° |
| 2026-05-03 23:54 | 30.20839 | -82.24741 | 32163 ft | 407 kts | 194° |
| 2026-05-03 23:55 | 30.16096 | -82.25205 | 32153 ft | 413 kts | 189° |
| 2026-05-03 23:55 | 30.10310 | -82.24598 | 32151 ft | 422 kts | 183° |
| 2026-05-03 23:56 | 30.04466 | -82.23833 | 32156 ft | 422 kts | 183° |
| 2026-05-03 23:56 | 29.98619 | -82.23076 | 32148 ft | 423 kts | 184° |
| 2026-05-03 23:57 | 29.92766 | -82.22328 | 32134 ft | 423 kts | 184° |
| 2026-05-03 23:57 | 29.86922 | -82.21579 | 32125 ft | 423 kts | 184° |
| 2026-05-03 23:58 | 29.81099 | -82.20837 | 32117 ft | 422 kts | 184° |
| 2026-05-03 23:58 | 29.75246 | -82.20083 | 32121 ft | 422 kts | 184° |
| 2026-05-03 23:59 | 29.69408 | -82.19328 | 32118 ft | 422 kts | 184° |
| 2026-05-03 23:59 | 29.63567 | -82.18579 | 32114 ft | 422 kts | 184° |
| 2026-05-04 00:00 | 29.57731 | -82.17834 | 32111 ft | 422 kts | 184° |
| 2026-05-04 00:00 | 29.51894 | -82.17095 | 32109 ft | 422 kts | 184° |
| 2026-05-04 00:01 | 29.46063 | -82.16370 | 32102 ft | 421 kts | 184° |
| 2026-05-04 00:01 | 29.40229 | -82.15639 | 32101 ft | 422 kts | 184° |
| 2026-05-04 00:02 | 29.34396 | -82.14902 | 32103 ft | 422 kts | 184° |
| 2026-05-04 00:02 | 29.28563 | -82.14172 | 32106 ft | 421 kts | 184° |
| 2026-05-04 00:03 | 29.22744 | -82.13448 | 32102 ft | 421 kts | 184° |
| 2026-05-04 00:03 | 29.16912 | -82.12750 | 32095 ft | 417 kts | 187° |
| 2026-05-04 00:04 | 29.11152 | -82.12599 | 32102 ft | 414 kts | 189° |
| 2026-05-04 00:04 | 29.05395 | -82.12481 | 32099 ft | 413 kts | 189° |
| 2026-05-04 00:05 | 28.99685 | -82.12374 | 32102 ft | 413 kts | 189° |
| 2026-05-04 00:05 | 28.93929 | -82.12261 | 32094 ft | 413 kts | 189° |
| 2026-05-04 00:06 | 28.88175 | -82.12134 | 32095 ft | 413 kts | 189° |
| 2026-05-04 00:06 | 28.82430 | -82.12012 | 32091 ft | 413 kts | 189° |
| 2026-05-04 00:07 | 28.76686 | -82.11898 | 32087 ft | 412 kts | 189° |
| 2026-05-04 00:07 | 28.70946 | -82.11780 | 32083 ft | 412 kts | 189° |
| 2026-05-04 00:08 | 28.65176 | -82.11334 | 32081 ft | 422 kts | 184° |
| 2026-05-04 00:08 | 28.62242 | -82.10912 | 31417 ft | 428 kts | 183° |
| 2026-05-04 00:08 | 28.59280 | -82.10485 | 30771 ft | 427 kts | 182° |
| 2026-05-04 00:09 | 28.56343 | -82.10056 | 30216 ft | 424 kts | 182° |
| 2026-05-04 00:09 | 28.53423 | -82.09630 | 29589 ft | 422 kts | 182° |
| 2026-05-04 00:09 | 28.50529 | -82.09211 | 29011 ft | 418 kts | 182° |
| 2026-05-04 00:09 | 28.47653 | -82.08796 | 28428 ft | 415 kts | 182° |
| 2026-05-04 00:10 | 28.44794 | -82.08368 | 27823 ft | 413 kts | 181° |
| 2026-05-04 00:10 | 28.41952 | -82.07930 | 27224 ft | 411 kts | 181° |
| 2026-05-04 00:10 | 28.39123 | -82.07488 | 26626 ft | 410 kts | 181° |
| 2026-05-04 00:10 | 28.36302 | -82.07048 | 26041 ft | 408 kts | 181° |
| 2026-05-04 00:11 | 28.33495 | -82.06613 | 25452 ft | 406 kts | 181° |
| 2026-05-04 00:11 | 28.30697 | -82.06181 | 24857 ft | 405 kts | 180° |
| 2026-05-04 00:11 | 28.27899 | -82.05757 | 24279 ft | 404 kts | 180° |
| 2026-05-04 00:11 | 28.25152 | -82.05346 | 23712 ft | 404 kts | 180° |
| 2026-05-04 00:12 | 28.22368 | -82.04933 | 23067 ft | 402 kts | 180° |
| 2026-05-04 00:12 | 28.19608 | -82.04524 | 22510 ft | 399 kts | 180° |
| 2026-05-04 00:12 | 28.16861 | -82.04116 | 21966 ft | 396 kts | 180° |
| 2026-05-04 00:12 | 28.14145 | -82.03896 | 21441 ft | 386 kts | 189° |
| 2026-05-04 00:13 | 28.11519 | -82.04223 | 20927 ft | 375 kts | 198° |
| 2026-05-04 00:13 | 28.09057 | -82.05053 | 20449 ft | 365 kts | 207° |
| 2026-05-04 00:13 | 28.06779 | -82.06269 | 19978 ft | 359 kts | 212° |
| 2026-05-04 00:13 | 28.04545 | -82.07517 | 19518 ft | 357 kts | 211° |
| 2026-05-04 00:14 | 28.02322 | -82.08748 | 19051 ft | 355 kts | 211° |
| 2026-05-04 00:14 | 28.00111 | -82.09965 | 18590 ft | 352 kts | 211° |
| 2026-05-04 00:14 | 27.97915 | -82.11172 | 18069 ft | 350 kts | 211° |
| 2026-05-04 00:14 | 27.95734 | -82.12372 | 17535 ft | 347 kts | 211° |
| 2026-05-04 00:15 | 27.93572 | -82.13565 | 17027 ft | 344 kts | 211° |
| 2026-05-04 00:15 | 27.91432 | -82.14744 | 16538 ft | 340 kts | 211° |
| 2026-05-04 00:15 | 27.89314 | -82.15910 | 16040 ft | 337 kts | 211° |
| 2026-05-04 00:15 | 27.87212 | -82.17070 | 15537 ft | 335 kts | 211° |
| 2026-05-04 00:16 | 27.85126 | -82.18222 | 15044 ft | 333 kts | 210° |
| 2026-05-04 00:16 | 27.83049 | -82.19367 | 14536 ft | 331 kts | 210° |
| 2026-05-04 00:16 | 27.80979 | -82.20507 | 14039 ft | 330 kts | 210° |
| 2026-05-04 00:16 | 27.78915 | -82.21642 | 13482 ft | 330 kts | 210° |
| 2026-05-04 00:17 | 27.76938 | -82.22919 | 12933 ft | 325 kts | 219° |
| 2026-05-04 00:17 | 27.75219 | -82.24542 | 12399 ft | 321 kts | 224° |
| 2026-05-04 00:17 | 27.73541 | -82.26209 | 11882 ft | 320 kts | 224° |
| 2026-05-04 00:17 | 27.71869 | -82.27860 | 11362 ft | 319 kts | 224° |
| 2026-05-04 00:18 | 27.70195 | -82.29511 | 10842 ft | 319 kts | 224° |
| 2026-05-04 00:18 | 27.68537 | -82.31143 | 10587 ft | 311 kts | 224° |
| 2026-05-04 00:18 | 27.66935 | -82.32715 | 10461 ft | 299 kts | 224° |
| 2026-05-04 00:18 | 27.65391 | -82.34228 | 10344 ft | 288 kts | 225° |
| 2026-05-04 00:19 | 27.63921 | -82.35669 | 10182 ft | 280 kts | 225° |
| 2026-05-04 00:19 | 27.62425 | -82.37040 | 10090 ft | 278 kts | 216° |
| 2026-05-04 00:19 | 27.60635 | -82.37915 | 10019 ft | 286 kts | 198° |
| 2026-05-04 00:19 | 27.58620 | -82.38088 | 9720 ft | 298 kts | 178° |
| 2026-05-04 00:20 | 27.56563 | -82.37695 | 9308 ft | 301 kts | 174° |
| 2026-05-04 00:20 | 27.54515 | -82.37283 | 8951 ft | 299 kts | 174° |
| 2026-05-04 00:20 | 27.52467 | -82.36882 | 8640 ft | 296 kts | 174° |
| 2026-05-04 00:20 | 27.50450 | -82.36492 | 8311 ft | 294 kts | 173° |
| 2026-05-04 00:21 | 27.48434 | -82.36107 | 7973 ft | 293 kts | 173° |
| 2026-05-04 00:21 | 27.46440 | -82.35728 | 7456 ft | 289 kts | 173° |
| 2026-05-04 00:21 | 27.44470 | -82.35350 | 6926 ft | 285 kts | 172° |
| 2026-05-04 00:21 | 27.42541 | -82.34978 | 6520 ft | 277 kts | 172° |
| 2026-05-04 00:22 | 27.40642 | -82.34614 | 6126 ft | 278 kts | 172° |
| 2026-05-04 00:22 | 27.38730 | -82.34251 | 5732 ft | 280 kts | 171° |
| 2026-05-04 00:22 | 27.36809 | -82.33895 | 5382 ft | 280 kts | 172° |
| 2026-05-04 00:22 | 27.34886 | -82.33550 | 5033 ft | 280 kts | 171° |
| 2026-05-04 00:23 | 27.32943 | -82.33224 | 4530 ft | 285 kts | 171° |
| 2026-05-04 00:23 | 27.30974 | -82.32922 | 4242 ft | 282 kts | 172° |
| 2026-05-04 00:23 | 27.29062 | -82.32643 | 4116 ft | 273 kts | 173° |
| 2026-05-04 00:23 | 27.27206 | -82.32748 | 3996 ft | 264 kts | 195° |
| 2026-05-04 00:24 | 27.25629 | -82.33655 | 4002 ft | 249 kts | 223° |
| 2026-05-04 00:24 | 27.24677 | -82.35170 | 4004 ft | 230 kts | 251° |
| 2026-05-04 00:24 | 27.24432 | -82.36864 | 3985 ft | 213 kts | 276° |
| 2026-05-04 00:24 | 27.24796 | -82.38411 | 3883 ft | 200 kts | 299° |
| 2026-05-04 00:25 | 27.25626 | -82.39616 | 3635 ft | 193 kts | 317° |
| 2026-05-04 00:25 | 27.26565 | -82.40683 | 3394 ft | 192 kts | 317° |
| 2026-05-04 00:25 | 27.27502 | -82.41752 | 3145 ft | 191 kts | 317° |
| 2026-05-04 00:25 | 27.28438 | -82.42820 | 2892 ft | 192 kts | 317° |
| 2026-05-04 00:26 | 27.29362 | -82.43875 | 2649 ft | 192 kts | 317° |
| 2026-05-04 00:26 | 27.30299 | -82.44944 | 2394 ft | 192 kts | 317° |
| 2026-05-04 00:26 | 27.31234 | -82.46011 | 2132 ft | 192 kts | 317° |
| 2026-05-04 00:26 | 27.32139 | -82.47047 | 1917 ft | 174 kts | 317° |
| 2026-05-04 00:27 | 27.32940 | -82.47964 | 1682 ft | 157 kts | 318° |
| 2026-05-04 00:27 | 27.33690 | -82.48820 | 1462 ft | 151 kts | 319° |
| 2026-05-04 00:27 | 27.34421 | -82.49654 | 1284 ft | 149 kts | 319° |
| 2026-05-04 00:27 | 27.35145 | -82.50481 | 1090 ft | 149 kts | 317° |
| 2026-05-04 00:28 | 27.35873 | -82.51312 | 902 ft | 148 kts | 318° |
| 2026-05-04 00:28 | 27.36594 | -82.52132 | 685 ft | 148 kts | 318° |
| 2026-05-04 00:28 | 27.37317 | -82.52961 | 484 ft | 149 kts | 317° |
| 2026-05-04 00:28 | 27.38041 | -82.53792 | 309 ft | 148 kts | 317° |
| 2026-05-04 00:29 | 27.38764 | -82.54619 | 109 ft | 148 kts | 316° |
| 2026-05-04 00:29 | 27.39455 | -82.55407 | 29 ft | 123 kts | 314° |
| 2026-05-04 00:29 | 27.39925 | -82.55952 | 28 ft | 64 kts | 316° |
| 2026-05-04 00:29 | 27.40090 | -82.56135 | 28 ft | 27 kts | 314° |
| 2026-05-04 00:30 | 27.40169 | -82.56266 | 29 ft | 14 kts | 263° |
| 2026-05-04 00:30 | 27.40111 | -82.56327 | 31 ft | 11 kts | 184° |
| 2026-05-04 00:30 | 27.40054 | -82.56274 | 30 ft | 12 kts | 134° |
| 2026-05-04 00:30 | 27.39986 | -82.56197 | 30 ft | 15 kts | 135° |
| 2026-05-04 00:31 | 27.39907 | -82.56104 | 30 ft | 18 kts | 134° |
| 2026-05-04 00:31 | 27.39834 | -82.56021 | 30 ft | 13 kts | 134° |
| 2026-05-04 00:31 | 27.39764 | -82.55940 | 31 ft | 16 kts | 134° |
| 2026-05-04 00:31 | 27.39683 | -82.55848 | 31 ft | 18 kts | 134° |
| 2026-05-04 00:32 | 27.39599 | -82.55752 | 31 ft | 17 kts | 134° |
| 2026-05-04 00:32 | 27.39510 | -82.55649 | 31 ft | 20 kts | 134° |
| 2026-05-04 00:32 | 27.39409 | -82.55533 | 31 ft | 22 kts | 134° |
| 2026-05-04 00:32 | 27.39320 | -82.55432 | 30 ft | 10 kts | 135° |
| 2026-05-04 00:33 | 27.39266 | -82.55370 | 30 ft | 12 kts | 135° |
| 2026-05-04 00:33 | 27.39128 | -82.55255 | 30 ft | 10 kts | 192° |
| 2026-05-04 00:33 | 27.39059 | -82.55271 | 31 ft | 11 kts | 175° |
| 2026-05-04 00:34 | 27.38980 | -82.55258 | 31 ft | 10 kts | 171° |
| 2026-05-04 00:34 | 27.38928 | -82.55257 | 31 ft | 5 kts | 210° |
| 2026-05-04 00:34 | 27.38923 | -82.55297 | 31 ft | 6 kts | 278° |
| 2026-05-04 00:34 | 27.38925 | -82.55311 | 31 ft | 1 kts | 278° |
| 2026-05-04 00:35 | 27.38925 | -82.55315 | 31 ft | 0 kts | 277° |